sensor_id;sensor_type;location;lat;lon;timestamp;pressure;altitude;pressure_sealevel;temperature;humidity
72262;BME280;60173;52.112;8.648;2023-07-31T00:01:11;99985.72;;;15.79;100.00
72262;BME280;60173;52.112;8.648;2023-07-31T00:03:37;99996.09;;;15.74;100.00
72262;BME280;60173;52.112;8.648;2023-07-31T00:06:04;99986.81;;;15.66;100.00
72262;BME280;60173;52.112;8.648;2023-07-31T00:08:30;99992.78;;;15.68;100.00
72262;BME280;60173;52.112;8.648;2023-07-31T00:10:56;99988.75;;;15.53;100.00
72262;BME280;60173;52.112;8.648;2023-07-31T00:13:23;99985.13;;;15.49;100.00
72262;BME280;60173;52.112;8.648;2023-07-31T00:15:49;99980.00;;;15.60;100.00
72262;BME280;60173;52.112;8.648;2023-07-31T00:18:16;99985.47;;;15.60;100.00
72262;BME280;60173;52.112;8.648;2023-07-31T00:20:42;99980.00;;;15.60;100.00
72262;BME280;60173;52.112;8.648;2023-07-31T00:23:08;99974.84;;;15.46;100.00
72262;BME280;60173;52.112;8.648;2023-07-31T00:25:35;99977.38;;;15.51;100.00
72262;BME280;60173;52.112;8.648;2023-07-31T00:28:01;99977.81;;;15.53;100.00
72262;BME280;60173;52.112;8.648;2023-07-31T00:30:28;99973.47;;;15.52;100.00
72262;BME280;60173;52.112;8.648;2023-07-31T00:32:54;99970.84;;;15.56;100.00
72262;BME280;60173;52.112;8.648;2023-07-31T00:35:20;99965.63;;;15.63;100.00
72262;BME280;60173;52.112;8.648;2023-07-31T00:37:47;99965.41;;;15.68;100.00
72262;BME280;60173;52.112;8.648;2023-07-31T00:40:13;99965.63;;;15.75;100.00
72262;BME280;60173;52.112;8.648;2023-07-31T00:42:40;99961.72;;;15.76;100.00
72262;BME280;60173;52.112;8.648;2023-07-31T00:45:06;99968.47;;;15.91;100.00
72262;BME280;60173;52.112;8.648;2023-07-31T00:47:33;99959.88;;;15.93;100.00
72262;BME280;60173;52.112;8.648;2023-07-31T00:49:59;99959.19;;;15.96;100.00
72262;BME280;60173;52.112;8.648;2023-07-31T00:52:26;99958.31;;;15.92;100.00
72262;BME280;60173;52.112;8.648;2023-07-31T00:54:52;99954.44;;;15.80;100.00
72262;BME280;60173;52.112;8.648;2023-07-31T00:57:18;99950.53;;;15.81;100.00
72262;BME280;60173;52.112;8.648;2023-07-31T00:59:45;99954.22;;;15.86;100.00
72262;BME280;60173;52.112;8.648;2023-07-31T01:02:11;99950.31;;;15.87;100.00
72262;BME280;60173;52.112;8.648;2023-07-31T01:04:38;99947.13;;;15.97;100.00
72262;BME280;60173;52.112;8.648;2023-07-31T01:07:12;99946.69;;;15.82;100.00
72262;BME280;60173;52.112;8.648;2023-07-31T01:09:52;99944.41;;;15.72;100.00
72262;BME280;60173;52.112;8.648;2023-07-31T01:12:23;99941.91;;;15.79;100.00
72262;BME280;60173;52.112;8.648;2023-07-31T01:15:06;99938.16;;;15.72;100.00
72262;BME280;60173;52.112;8.648;2023-07-31T01:17:33;99925.22;;;15.85;100.00
72262;BME280;60173;52.112;8.648;2023-07-31T01:20:02;99926.13;;;15.89;100.00
72262;BME280;60173;52.112;8.648;2023-07-31T01:27:56;99923.34;;;16.01;100.00
72262;BME280;60173;52.112;8.648;2023-07-31T01:30:28;99929.25;;;15.75;100.00
72262;BME280;60173;52.112;8.648;2023-07-31T01:32:58;99931.19;;;15.74;100.00
72262;BME280;60173;52.112;8.648;2023-07-31T01:35:24;99923.06;;;15.66;100.00
72262;BME280;60173;52.112;8.648;2023-07-31T01:37:54;99921.25;;;15.70;100.00
72262;BME280;60173;52.112;8.648;2023-07-31T01:40:20;99931.41;;;15.45;100.00
72262;BME280;60173;52.112;8.648;2023-07-31T01:42:47;99923.22;;;15.32;100.00
72262;BME280;60173;52.112;8.648;2023-07-31T01:45:13;99918.88;;;15.31;100.00
72262;BME280;60173;52.112;8.648;2023-07-31T01:47:40;99919.22;;;15.42;100.00
72262;BME280;60173;52.112;8.648;2023-07-31T01:50:06;99922.28;;;15.41;100.00
72262;BME280;60173;52.112;8.648;2023-07-31T01:52:33;99923.53;;;15.55;100.00
72262;BME280;60173;52.112;8.648;2023-07-31T01:54:59;99916.72;;;15.37;100.00
72262;BME280;60173;52.112;8.648;2023-07-31T01:57:25;99906.13;;;15.48;100.00
72262;BME280;60173;52.112;8.648;2023-07-31T01:59:52;99915.44;;;15.47;100.00
72262;BME280;60173;52.112;8.648;2023-07-31T02:02:19;99915.94;;;15.36;100.00
72262;BME280;60173;52.112;8.648;2023-07-31T02:04:46;99903.59;;;15.43;100.00
72262;BME280;60173;52.112;8.648;2023-07-31T02:07:12;99900.88;;;15.43;100.00
72262;BME280;60173;52.112;8.648;2023-07-31T02:09:39;99902.91;;;15.46;100.00
72262;BME280;60173;52.112;8.648;2023-07-31T02:12:05;99900.63;;;15.48;100.00
72262;BME280;60173;52.112;8.648;2023-07-31T02:14:32;99903.13;;;15.41;100.00
72262;BME280;60173;52.112;8.648;2023-07-31T02:16:58;99897.91;;;15.23;100.00
72262;BME280;60173;52.112;8.648;2023-07-31T02:19:25;99894.72;;;15.21;100.00
72262;BME280;60173;52.112;8.648;2023-07-31T02:21:51;99892.69;;;15.30;100.00
72262;BME280;60173;52.112;8.648;2023-07-31T02:24:17;99887.44;;;15.13;100.00
72262;BME280;60173;52.112;8.648;2023-07-31T02:26:44;99884.47;;;15.06;100.00
72262;BME280;60173;52.112;8.648;2023-07-31T02:29:10;99883.78;;;15.09;100.00
72262;BME280;60173;52.112;8.648;2023-07-31T02:31:37;99883.78;;;15.09;100.00
72262;BME280;60173;52.112;8.648;2023-07-31T02:34:03;99882.41;;;15.03;100.00
72262;BME280;60173;52.112;8.648;2023-07-31T02:36:29;99882.19;;;15.08;100.00
72262;BME280;60173;52.112;8.648;2023-07-31T02:38:56;99880.03;;;15.13;100.00
72262;BME280;60173;52.112;8.648;2023-07-31T02:41:22;99876.16;;;15.02;100.00
72262;BME280;60173;52.112;8.648;2023-07-31T02:43:48;99879.69;;;15.03;100.00
72262;BME280;60173;52.112;8.648;2023-07-31T02:46:15;99877.63;;;15.00;100.00
72262;BME280;60173;52.112;8.648;2023-07-31T02:48:41;99878.09;;;15.02;100.00
72262;BME280;60173;52.112;8.648;2023-07-31T02:51:08;99878.22;;;14.93;100.00
72262;BME280;60173;52.112;8.648;2023-07-31T02:53:34;99879.56;;;14.87;100.00
72262;BME280;60173;52.112;8.648;2023-07-31T02:56:00;99884.44;;;14.69;100.00
72262;BME280;60173;52.112;8.648;2023-07-31T02:58:27;99881.94;;;14.76;100.00
72262;BME280;60173;52.112;8.648;2023-07-31T03:00:53;99879.69;;;14.78;100.00
72262;BME280;60173;52.112;8.648;2023-07-31T03:03:20;99877.50;;;14.84;100.00
72262;BME280;60173;52.112;8.648;2023-07-31T03:05:46;99886.38;;;14.68;100.00
72262;BME280;60173;52.112;8.648;2023-07-31T03:08:13;99889.69;;;14.74;100.00
72262;BME280;60173;52.112;8.648;2023-07-31T03:10:39;99885.69;;;14.84;100.00
72262;BME280;60173;52.112;8.648;2023-07-31T03:13:06;99876.03;;;14.86;100.00
72262;BME280;60173;52.112;8.648;2023-07-31T03:15:32;99878.53;;;14.67;100.00
72262;BME280;60173;52.112;8.648;2023-07-31T03:17:59;99877.59;;;14.75;100.00
72262;BME280;60173;52.112;8.648;2023-07-31T03:20:25;99871.59;;;14.69;100.00
72262;BME280;60173;52.112;8.648;2023-07-31T03:22:52;99878.28;;;14.72;100.00
72262;BME280;60173;52.112;8.648;2023-07-31T03:25:18;99882.84;;;14.68;100.00
72262;BME280;60173;52.112;8.648;2023-07-31T03:27:44;99872.59;;;14.77;100.00
72262;BME280;60173;52.112;8.648;2023-07-31T03:30:11;99880.00;;;14.64;100.00
72262;BME280;60173;52.112;8.648;2023-07-31T03:32:37;99874.75;;;14.72;100.00
72262;BME280;60173;52.112;8.648;2023-07-31T03:35:04;99871.81;;;14.64;100.00
72262;BME280;60173;52.112;8.648;2023-07-31T03:37:31;99863.81;;;14.72;100.00
72262;BME280;60173;52.112;8.648;2023-07-31T03:39:57;99860.88;;;14.77;100.00
72262;BME280;60173;52.112;8.648;2023-07-31T03:42:23;99861.09;;;14.72;100.00
72262;BME280;60173;52.112;8.648;2023-07-31T03:44:50;99852.66;;;14.64;100.00
72262;BME280;60173;52.112;8.648;2023-07-31T03:47:16;99860.97;;;14.56;100.00
72262;BME280;60173;52.112;8.648;2023-07-31T03:49:43;99854.03;;;14.71;100.00
72262;BME280;60173;52.112;8.648;2023-07-31T03:52:09;99854.63;;;14.88;100.00
72262;BME280;60173;52.112;8.648;2023-07-31T03:54:35;99854.59;;;15.01;100.00
72262;BME280;60173;52.112;8.648;2023-07-31T03:57:02;99854.75;;;15.04;100.00
72262;BME280;60173;52.112;8.648;2023-07-31T03:59:28;99846.41;;;15.13;100.00
72262;BME280;60173;52.112;8.648;2023-07-31T04:01:55;99847.31;;;15.17;100.00
72262;BME280;60173;52.112;8.648;2023-07-31T04:04:21;99844.13;;;15.03;100.00
72262;BME280;60173;52.112;8.648;2023-07-31T04:06:47;99844.91;;;15.15;100.00
72262;BME280;60173;52.112;8.648;2023-07-31T04:09:14;99852.09;;;15.20;100.00
72262;BME280;60173;52.112;8.648;2023-07-31T04:11:40;99850.13;;;15.33;100.00
72262;BME280;60173;52.112;8.648;2023-07-31T04:14:06;99845.91;;;15.48;100.00
72262;BME280;60173;52.112;8.648;2023-07-31T04:16:33;99852.53;;;15.34;100.00
72262;BME280;60173;52.112;8.648;2023-07-31T04:18:59;99851.16;;;15.41;100.00
72262;BME280;60173;52.112;8.648;2023-07-31T04:21:26;99858.69;;;15.31;100.00
72262;BME280;60173;52.112;8.648;2023-07-31T04:23:52;99852.53;;;15.34;100.00
72262;BME280;60173;52.112;8.648;2023-07-31T04:26:18;99850.94;;;15.33;100.00
72262;BME280;60173;52.112;8.648;2023-07-31T04:28:45;99841.13;;;15.32;100.00
72262;BME280;60173;52.112;8.648;2023-07-31T04:31:11;99847.16;;;15.38;100.00
72262;BME280;60173;52.112;8.648;2023-07-31T04:33:38;99839.50;;;15.44;100.00
72262;BME280;60173;52.112;8.648;2023-07-31T04:36:04;99852.28;;;15.52;100.00
72262;BME280;60173;52.112;8.648;2023-07-31T04:38:31;99850.88;;;15.58;100.00
72262;BME280;60173;52.112;8.648;2023-07-31T04:40:57;99831.06;;;15.49;100.00
72262;BME280;60173;52.112;8.648;2023-07-31T04:43:24;99844.78;;;15.36;100.00
72262;BME280;60173;52.112;8.648;2023-07-31T04:45:50;99835.28;;;15.46;100.00
72262;BME280;60173;52.112;8.648;2023-07-31T04:48:16;99835.41;;;15.50;100.00
72262;BME280;60173;52.112;8.648;2023-07-31T04:50:43;99839.69;;;15.63;100.00
72262;BME280;60173;52.112;8.648;2023-07-31T04:53:09;99847.25;;;15.42;100.00
72262;BME280;60173;52.112;8.648;2023-07-31T04:55:36;99842.03;;;15.49;100.00
72262;BME280;60173;52.112;8.648;2023-07-31T04:58:02;99843.44;;;15.30;100.00
72262;BME280;60173;52.112;8.648;2023-07-31T05:00:28;99851.63;;;15.30;100.00
72262;BME280;60173;52.112;8.648;2023-07-31T05:02:55;99843.88;;;15.32;100.00
72262;BME280;60173;52.112;8.648;2023-07-31T05:05:21;99831.22;;;15.40;100.00
72262;BME280;60173;52.112;8.648;2023-07-31T05:07:48;99844.88;;;15.40;100.00
72262;BME280;60173;52.112;8.648;2023-07-31T05:10:14;99839.06;;;15.54;100.00
72262;BME280;60173;52.112;8.648;2023-07-31T05:12:41;99838.66;;;15.68;100.00
72262;BME280;60173;52.112;8.648;2023-07-31T05:15:07;99849.72;;;15.59;100.00
72262;BME280;60173;52.112;8.648;2023-07-31T05:17:34;99843.16;;;15.48;100.00
72262;BME280;60173;52.112;8.648;2023-07-31T05:20:00;99833.34;;;15.47;100.00
72262;BME280;60173;52.112;8.648;2023-07-31T05:22:27;99836.72;;;15.28;100.00
72262;BME280;60173;52.112;8.648;2023-07-31T05:24:53;99837.59;;;15.32;100.00
72262;BME280;60173;52.112;8.648;2023-07-31T05:27:20;99829.06;;;15.33;100.00
72262;BME280;60173;52.112;8.648;2023-07-31T05:29:46;99832.47;;;15.43;100.00
72262;BME280;60173;52.112;8.648;2023-07-31T05:32:12;99841.03;;;15.29;100.00
72262;BME280;60173;52.112;8.648;2023-07-31T05:34:39;99838.16;;;15.37;100.00
72262;BME280;60173;52.112;8.648;2023-07-31T05:37:05;99837.94;;;15.43;100.00
72262;BME280;60173;52.112;8.648;2023-07-31T05:39:32;99845.47;;;15.33;100.00
72262;BME280;60173;52.112;8.648;2023-07-31T05:41:58;99852.63;;;15.38;100.00
72262;BME280;60173;52.112;8.648;2023-07-31T05:44:24;99848.66;;;15.48;100.00
72262;BME280;60173;52.112;8.648;2023-07-31T05:46:51;99851.06;;;15.37;100.00
72262;BME280;60173;52.112;8.648;2023-07-31T05:49:17;99852.03;;;15.57;100.00
72262;BME280;60173;52.112;8.648;2023-07-31T05:51:43;99844.53;;;15.54;100.00
72262;BME280;60173;52.112;8.648;2023-07-31T05:54:10;99846.91;;;15.55;100.00
72262;BME280;60173;52.112;8.648;2023-07-31T05:56:36;99843.28;;;15.51;100.00
72262;BME280;60173;52.112;8.648;2023-07-31T05:59:03;99839.34;;;15.65;100.00
72262;BME280;60173;52.112;8.648;2023-07-31T06:01:30;99843.91;;;15.73;100.00
72262;BME280;60173;52.112;8.648;2023-07-31T06:03:56;99841.03;;;15.81;100.00
72262;BME280;60173;52.112;8.648;2023-07-31T06:06:23;99840.75;;;15.71;100.00
72262;BME280;60173;52.112;8.648;2023-07-31T06:08:49;99841.97;;;15.73;100.00
72262;BME280;60173;52.112;8.648;2023-07-31T06:11:15;99834.81;;;15.97;100.00
72262;BME280;60173;52.112;8.648;2023-07-31T06:13:42;99837.28;;;16.02;100.00
72262;BME280;60173;52.112;8.648;2023-07-31T06:16:09;99831.53;;;15.91;100.00
72262;BME280;60173;52.112;8.648;2023-07-31T06:18:36;99836.00;;;15.84;100.00
72262;BME280;60173;52.112;8.648;2023-07-31T06:21:02;99835.47;;;15.78;100.00
72262;BME280;60173;52.112;8.648;2023-07-31T06:23:28;99837.00;;;15.91;100.00
72262;BME280;60173;52.112;8.648;2023-07-31T06:25:55;99846.72;;;15.89;100.00
72262;BME280;60173;52.112;8.648;2023-07-31T06:28:25;99838.44;;;16.01;100.00
72262;BME280;60173;52.112;8.648;2023-07-31T06:30:53;99840.47;;;16.04;100.00
72262;BME280;60173;52.112;8.648;2023-07-31T06:33:19;99835.66;;;15.85;100.00
72262;BME280;60173;52.112;8.648;2023-07-31T06:35:46;99840.78;;;15.87;100.00
72262;BME280;60173;52.112;8.648;2023-07-31T06:38:12;99844.69;;;15.86;100.00
72262;BME280;60173;52.112;8.648;2023-07-31T06:40:39;99823.56;;;15.86;100.00
72262;BME280;60173;52.112;8.648;2023-07-31T06:43:05;99817.78;;;15.75;100.00
72262;BME280;60173;52.112;8.648;2023-07-31T06:45:32;99812.91;;;15.69;100.00
72262;BME280;60173;52.112;8.648;2023-07-31T06:47:58;99810.72;;;15.62;100.00
72262;BME280;60173;52.112;8.648;2023-07-31T06:50:24;99818.03;;;15.58;100.00
72262;BME280;60173;52.112;8.648;2023-07-31T06:52:51;99815.28;;;15.70;100.00
72262;BME280;60173;52.112;8.648;2023-07-31T06:55:18;99815.06;;;15.63;100.00
72262;BME280;60173;52.112;8.648;2023-07-31T06:57:46;99812.53;;;15.82;100.00
72262;BME280;60173;52.112;8.648;2023-07-31T07:00:13;99812.63;;;15.86;100.00
72262;BME280;60173;52.112;8.648;2023-07-31T07:02:39;99808.78;;;16.03;100.00
72262;BME280;60173;52.112;8.648;2023-07-31T07:05:07;99821.38;;;15.92;100.00
72262;BME280;60173;52.112;8.648;2023-07-31T07:07:34;99818.25;;;16.21;100.00
72262;BME280;60173;52.112;8.648;2023-07-31T07:10:00;99824.47;;;16.50;100.00
72262;BME280;60173;52.112;8.648;2023-07-31T07:12:29;99820.75;;;16.58;100.00
72262;BME280;60173;52.112;8.648;2023-07-31T07:14:56;99823.31;;;16.99;98.21
72262;BME280;60173;52.112;8.648;2023-07-31T07:17:23;99827.38;;;17.40;96.37
72262;BME280;60173;52.112;8.648;2023-07-31T07:19:49;99821.66;;;17.29;96.30
72262;BME280;60173;52.112;8.648;2023-07-31T07:22:16;99821.31;;;17.31;95.53
72262;BME280;60173;52.112;8.648;2023-07-31T07:24:42;99820.75;;;17.60;94.16
72262;BME280;60173;52.112;8.648;2023-07-31T07:27:08;99818.44;;;17.62;94.13
72262;BME280;60173;52.112;8.648;2023-07-31T07:29:35;99829.19;;;17.52;94.91
72262;BME280;60173;52.112;8.648;2023-07-31T07:32:01;99818.50;;;17.27;96.76
72262;BME280;60173;52.112;8.648;2023-07-31T07:34:28;99814.47;;;17.05;97.71
72262;BME280;60173;52.112;8.648;2023-07-31T07:36:55;99814.97;;;17.11;98.04
72262;BME280;60173;52.112;8.648;2023-07-31T07:39:21;99815.63;;;17.04;98.03
72262;BME280;60173;52.112;8.648;2023-07-31T07:41:48;99811.72;;;17.05;98.99
72262;BME280;60173;52.112;8.648;2023-07-31T07:44:14;99818.72;;;17.03;96.22
72262;BME280;60173;52.112;8.648;2023-07-31T07:46:41;99816.06;;;16.90;99.91
72262;BME280;60173;52.112;8.648;2023-07-31T07:49:07;99804.31;;;16.90;99.43
72262;BME280;60173;52.112;8.648;2023-07-31T07:51:34;99795.81;;;16.63;100.00
72262;BME280;60173;52.112;8.648;2023-07-31T07:54:00;99797.41;;;16.64;100.00
72262;BME280;60173;52.112;8.648;2023-07-31T07:56:27;99801.84;;;16.53;100.00
72262;BME280;60173;52.112;8.648;2023-07-31T07:58:54;99797.84;;;16.50;100.00
72262;BME280;60173;52.112;8.648;2023-07-31T08:01:20;99811.84;;;16.61;100.00
72262;BME280;60173;52.112;8.648;2023-07-31T08:03:47;99805.63;;;16.48;100.00
72262;BME280;60173;52.112;8.648;2023-07-31T08:06:14;99801.75;;;16.49;100.00
72262;BME280;60173;52.112;8.648;2023-07-31T08:08:40;99796.50;;;16.60;100.00
72262;BME280;60173;52.112;8.648;2023-07-31T08:11:07;99802.91;;;16.64;100.00
72262;BME280;60173;52.112;8.648;2023-07-31T08:13:33;99793.34;;;16.58;100.00
72262;BME280;60173;52.112;8.648;2023-07-31T08:16:00;99788.09;;;16.69;100.00
72262;BME280;60173;52.112;8.648;2023-07-31T08:18:26;99780.25;;;16.83;100.00
72262;BME280;60173;52.112;8.648;2023-07-31T08:20:52;99783.16;;;16.75;100.00
72262;BME280;60173;52.112;8.648;2023-07-31T08:23:19;99766.47;;;16.80;100.00
72262;BME280;60173;52.112;8.648;2023-07-31T08:25:45;99769.38;;;16.87;100.00
72262;BME280;60173;52.112;8.648;2023-07-31T08:28:12;99768.06;;;17.16;100.00
72262;BME280;60173;52.112;8.648;2023-07-31T08:30:38;99762.06;;;17.10;100.00
72262;BME280;60173;52.112;8.648;2023-07-31T08:33:04;99768.81;;;16.97;100.00
72262;BME280;60173;52.112;8.648;2023-07-31T08:35:31;99757.84;;;16.97;100.00
72262;BME280;60173;52.112;8.648;2023-07-31T08:37:57;99750.38;;;17.13;100.00
72262;BME280;60173;52.112;8.648;2023-07-31T08:40:24;99746.97;;;17.20;100.00
72262;BME280;60173;52.112;8.648;2023-07-31T08:42:54;99753.03;;;17.10;96.47
72262;BME280;60173;52.112;8.648;2023-07-31T08:45:21;99747.75;;;17.21;100.00
72262;BME280;60173;52.112;8.648;2023-07-31T08:47:49;99752.69;;;17.31;100.00
72262;BME280;60173;52.112;8.648;2023-07-31T08:50:19;99737.66;;;17.63;100.00
72262;BME280;60173;52.112;8.648;2023-07-31T08:52:47;99742.47;;;17.70;99.78
72262;BME280;60173;52.112;8.648;2023-07-31T08:55:14;99745.06;;;18.25;97.43
72262;BME280;60173;52.112;8.648;2023-07-31T08:57:42;99732.75;;;18.91;95.23
72262;BME280;60173;52.112;8.648;2023-07-31T09:00:10;99733.81;;;18.83;93.63
72262;BME280;60173;52.112;8.648;2023-07-31T09:02:54;99730.81;;;19.22;92.72
72262;BME280;60173;52.112;8.648;2023-07-31T09:05:22;99732.53;;;18.77;94.84
72262;BME280;60173;52.112;8.648;2023-07-31T09:07:50;99727.44;;;18.52;95.43
72262;BME280;60173;52.112;8.648;2023-07-31T09:10:17;99730.81;;;18.42;95.71
72262;BME280;60173;52.112;8.648;2023-07-31T09:12:44;99723.81;;;18.22;96.34
72262;BME280;60173;52.112;8.648;2023-07-31T09:15:11;99736.75;;;17.98;97.93
72262;BME280;60173;52.112;8.648;2023-07-31T09:18:00;99728.75;;;17.90;97.12
72262;BME280;60173;52.112;8.648;2023-07-31T09:20:27;99732.97;;;17.83;99.59
72262;BME280;60173;52.112;8.648;2023-07-31T09:22:55;99722.69;;;17.80;99.41
72262;BME280;60173;52.112;8.648;2023-07-31T09:25:23;99731.94;;;17.92;99.47
72262;BME280;60173;52.112;8.648;2023-07-31T09:27:56;99725.78;;;17.79;99.57
72262;BME280;60173;52.112;8.648;2023-07-31T09:30:23;99716.69;;;17.94;100.00
72262;BME280;60173;52.112;8.648;2023-07-31T09:32:51;99715.94;;;17.97;98.97
72262;BME280;60173;52.112;8.648;2023-07-31T09:35:31;99715.94;;;18.20;97.80
72262;BME280;60173;52.112;8.648;2023-07-31T09:38:00;99709.97;;;18.15;97.50
72262;BME280;60173;52.112;8.648;2023-07-31T09:40:30;99715.06;;;18.39;97.35
72262;BME280;60173;52.112;8.648;2023-07-31T09:43:02;99721.09;;;18.48;95.88
72262;BME280;60173;52.112;8.648;2023-07-31T09:45:29;99715.25;;;18.27;96.18
72262;BME280;60173;52.112;8.648;2023-07-31T09:48:12;99713.56;;;18.19;96.11
72262;BME280;60173;52.112;8.648;2023-07-31T09:50:43;99710.50;;;18.01;97.84
72262;BME280;60173;52.112;8.648;2023-07-31T09:53:10;99712.75;;;17.95;99.01
72262;BME280;60173;52.112;8.648;2023-07-31T09:55:37;99706.09;;;18.19;96.53
72262;BME280;60173;52.112;8.648;2023-07-31T09:58:06;99700.53;;;18.65;93.54
72262;BME280;60173;52.112;8.648;2023-07-31T10:00:33;99703.75;;;18.44;94.32
72262;BME280;60173;52.112;8.648;2023-07-31T10:03:07;99704.72;;;18.56;94.89
72262;BME280;60173;52.112;8.648;2023-07-31T10:05:37;99706.94;;;18.46;94.79
72262;BME280;60173;52.112;8.648;2023-07-31T10:08:06;99691.50;;;18.15;96.18
72262;BME280;60173;52.112;8.648;2023-07-31T10:10:36;99694.78;;;18.24;96.58
72262;BME280;60173;52.112;8.648;2023-07-31T10:13:03;99686.06;;;18.19;97.11
72262;BME280;60173;52.112;8.648;2023-07-31T10:15:31;99694.25;;;18.38;97.13
72262;BME280;60173;52.112;8.648;2023-07-31T10:17:58;99699.53;;;18.50;95.74
72262;BME280;60173;52.112;8.648;2023-07-31T10:20:26;99693.81;;;18.13;97.39
72262;BME280;60173;52.112;8.648;2023-07-31T10:22:54;99689.75;;;18.03;98.02
72262;BME280;60173;52.112;8.648;2023-07-31T10:25:22;99696.91;;;17.66;99.12
72262;BME280;60173;52.112;8.648;2023-07-31T10:27:49;99701.09;;;17.59;100.00
72262;BME280;60173;52.112;8.648;2023-07-31T10:30:17;99699.22;;;17.63;100.00
72262;BME280;60173;52.112;8.648;2023-07-31T10:32:47;99694.59;;;17.68;100.00
72262;BME280;60173;52.112;8.648;2023-07-31T10:35:16;99692.75;;;17.95;99.04
72262;BME280;60173;52.112;8.648;2023-07-31T10:37:43;99688.97;;;18.03;99.54
72262;BME280;60173;52.112;8.648;2023-07-31T10:40:20;99693.59;;;18.48;96.22
72262;BME280;60173;52.112;8.648;2023-07-31T10:42:53;99687.47;;;19.15;93.47
72262;BME280;60173;52.112;8.648;2023-07-31T10:45:42;99689.63;;;18.99;93.28
72262;BME280;60173;52.112;8.648;2023-07-31T10:48:15;99683.50;;;18.56;96.04
72262;BME280;60173;52.112;8.648;2023-07-31T10:50:50;99686.69;;;18.58;96.19
72262;BME280;60173;52.112;8.648;2023-07-31T10:53:30;99683.16;;;18.58;96.96
72262;BME280;60173;52.112;8.648;2023-07-31T10:56:17;99681.06;;;18.51;97.62
72262;BME280;60173;52.112;8.648;2023-07-31T10:58:44;99676.38;;;18.51;98.04
72262;BME280;60173;52.112;8.648;2023-07-31T11:01:11;99680.44;;;18.61;98.75
72262;BME280;60173;52.112;8.648;2023-07-31T11:03:48;99675.59;;;19.08;94.95
72262;BME280;60173;52.112;8.648;2023-07-31T11:06:16;99670.75;;;19.31;92.10
72262;BME280;60173;52.112;8.648;2023-07-31T11:08:49;99678.00;;;19.13;92.53
72262;BME280;60173;52.112;8.648;2023-07-31T11:11:18;99676.41;;;19.12;93.54
72262;BME280;60173;52.112;8.648;2023-07-31T11:13:47;99674.56;;;18.36;95.82
72262;BME280;60173;52.112;8.648;2023-07-31T11:16:14;99679.44;;;17.97;97.39
72262;BME280;60173;52.112;8.648;2023-07-31T11:18:42;99674.09;;;18.07;99.02
72262;BME280;60173;52.112;8.648;2023-07-31T11:21:13;99676.69;;;18.20;98.16
72262;BME280;60173;52.112;8.648;2023-07-31T11:23:40;99669.78;;;18.60;96.92
72262;BME280;60173;52.112;8.648;2023-07-31T11:26:07;99666.31;;;18.89;94.95
72262;BME280;60173;52.112;8.648;2023-07-31T11:28:34;99669.91;;;18.93;93.18
72262;BME280;60173;52.112;8.648;2023-07-31T11:31:02;99666.31;;;18.63;95.11
72262;BME280;60173;52.112;8.648;2023-07-31T11:33:29;99666.16;;;18.52;96.57
72262;BME280;60173;52.112;8.648;2023-07-31T11:35:56;99660.00;;;18.62;96.21
72262;BME280;60173;52.112;8.648;2023-07-31T11:40:53;99664.97;;;18.76;95.94
72262;BME280;60173;52.112;8.648;2023-07-31T11:43:20;99659.44;;;18.76;95.23
72262;BME280;60173;52.112;8.648;2023-07-31T11:45:49;99666.59;;;18.81;95.80
72262;BME280;60173;52.112;8.648;2023-07-31T11:48:36;99659.75;;;18.71;95.07
72262;BME280;60173;52.112;8.648;2023-07-31T11:51:04;99654.03;;;18.83;94.53
72262;BME280;60173;52.112;8.648;2023-07-31T11:53:43;99652.94;;;18.88;94.75
72262;BME280;60173;52.112;8.648;2023-07-31T11:56:12;99653.94;;;18.49;95.22
72262;BME280;60173;52.112;8.648;2023-07-31T11:58:40;99654.22;;;18.97;94.75
72262;BME280;60173;52.112;8.648;2023-07-31T12:01:07;99654.69;;;19.37;92.24
72262;BME280;60173;52.112;8.648;2023-07-31T12:03:34;99651.19;;;19.77;90.24
72262;BME280;60173;52.112;8.648;2023-07-31T12:06:01;99651.78;;;20.01;89.67
72262;BME280;60173;52.112;8.648;2023-07-31T12:08:27;99642.13;;;19.39;90.88
72262;BME280;60173;52.112;8.648;2023-07-31T12:10:54;99640.50;;;19.35;91.02
72262;BME280;60173;52.112;8.648;2023-07-31T12:13:25;99642.88;;;19.36;91.93
72262;BME280;60173;52.112;8.648;2023-07-31T12:15:56;99645.31;;;19.79;91.37
72262;BME280;60173;52.112;8.648;2023-07-31T12:18:25;99647.91;;;20.61;88.09
72262;BME280;60173;52.112;8.648;2023-07-31T12:20:59;99640.72;;;20.49;85.54
72262;BME280;60173;52.112;8.648;2023-07-31T12:23:28;99641.00;;;20.33;87.70
72262;BME280;60173;52.112;8.648;2023-07-31T12:26:11;99640.16;;;19.40;90.86
72262;BME280;60173;52.112;8.648;2023-07-31T12:28:49;99638.94;;;19.37;91.93
72262;BME280;60173;52.112;8.648;2023-07-31T12:33:43;99632.81;;;19.51;91.45
72262;BME280;60173;52.112;8.648;2023-07-31T12:36:12;99633.84;;;19.73;91.47
72262;BME280;60173;52.112;8.648;2023-07-31T12:38:39;99626.06;;;19.86;91.09
72262;BME280;60173;52.112;8.648;2023-07-31T12:41:06;99628.03;;;19.45;91.72
72262;BME280;60173;52.112;8.648;2023-07-31T12:43:33;99623.94;;;18.97;93.60
72262;BME280;60173;52.112;8.648;2023-07-31T12:46:00;99628.09;;;18.81;94.84
72262;BME280;60173;52.112;8.648;2023-07-31T12:48:26;99625.81;;;18.33;98.36
72262;BME280;60173;52.112;8.648;2023-07-31T12:50:53;99622.94;;;18.79;97.11
72262;BME280;60173;52.112;8.648;2023-07-31T12:53:19;99630.78;;;18.50;97.71
72262;BME280;60173;52.112;8.648;2023-07-31T12:55:46;99620.50;;;18.17;98.77
72262;BME280;60173;52.112;8.648;2023-07-31T12:58:13;99633.41;;;17.90;100.00
72262;BME280;60173;52.112;8.648;2023-07-31T13:00:39;99632.84;;;17.81;100.00
72262;BME280;60173;52.112;8.648;2023-07-31T13:03:05;99639.53;;;17.60;100.00
72262;BME280;60173;52.112;8.648;2023-07-31T13:05:32;99635.06;;;17.95;100.00